sensor_id;sensor_type;location;lat;lon;timestamp;P1;durP1;ratioP1;P2;durP2;ratioP2
6828;SDS011;17930;48.592;8.868;2023-12-29T00:00:05;2.70;;;1.80;;
6828;SDS011;17930;48.592;8.868;2023-12-29T00:02:33;3.43;;;2.00;;
6828;SDS011;17930;48.592;8.868;2023-12-29T00:05:00;3.07;;;2.17;;
6828;SDS011;17930;48.592;8.868;2023-12-29T00:07:27;3.70;;;1.63;;
6828;SDS011;17930;48.592;8.868;2023-12-29T00:09:53;8.93;;;2.47;;
6828;SDS011;17930;48.592;8.868;2023-12-29T00:12:20;2.90;;;1.77;;
6828;SDS011;17930;48.592;8.868;2023-12-29T00:14:47;3.00;;;1.83;;
6828;SDS011;17930;48.592;8.868;2023-12-29T00:17:14;3.97;;;1.90;;
6828;SDS011;17930;48.592;8.868;2023-12-29T00:19:42;2.77;;;2.10;;
6828;SDS011;17930;48.592;8.868;2023-12-29T00:22:08;2.00;;;1.80;;
6828;SDS011;17930;48.592;8.868;2023-12-29T00:24:35;2.50;;;1.83;;
6828;SDS011;17930;48.592;8.868;2023-12-29T00:27:02;4.10;;;2.00;;
6828;SDS011;17930;48.592;8.868;2023-12-29T00:29:29;3.23;;;2.30;;
6828;SDS011;17930;48.592;8.868;2023-12-29T00:31:58;3.00;;;2.13;;
6828;SDS011;17930;48.592;8.868;2023-12-29T00:34:28;5.10;;;2.33;;
6828;SDS011;17930;48.592;8.868;2023-12-29T00:36:56;2.93;;;2.10;;
6828;SDS011;17930;48.592;8.868;2023-12-29T00:39:22;2.90;;;2.13;;
6828;SDS011;17930;48.592;8.868;2023-12-29T00:41:54;4.37;;;2.20;;
6828;SDS011;17930;48.592;8.868;2023-12-29T00:44:21;3.93;;;2.20;;
6828;SDS011;17930;48.592;8.868;2023-12-29T00:46:48;5.23;;;2.53;;
6828;SDS011;17930;48.592;8.868;2023-12-29T00:49:15;4.67;;;2.40;;
6828;SDS011;17930;48.592;8.868;2023-12-29T00:51:43;2.73;;;2.27;;
6828;SDS011;17930;48.592;8.868;2023-12-29T00:54:11;3.93;;;2.30;;
6828;SDS011;17930;48.592;8.868;2023-12-29T00:56:38;3.43;;;2.50;;
6828;SDS011;17930;48.592;8.868;2023-12-29T00:59:05;9.10;;;3.23;;
6828;SDS011;17930;48.592;8.868;2023-12-29T01:01:33;3.80;;;2.93;;
6828;SDS011;17930;48.592;8.868;2023-12-29T01:04:00;5.00;;;3.07;;
6828;SDS011;17930;48.592;8.868;2023-12-29T01:06:27;4.07;;;2.70;;
6828;SDS011;17930;48.592;8.868;2023-12-29T01:08:53;4.60;;;2.50;;
6828;SDS011;17930;48.592;8.868;2023-12-29T01:11:22;5.13;;;2.73;;
6828;SDS011;17930;48.592;8.868;2023-12-29T01:13:48;3.80;;;2.03;;
6828;SDS011;17930;48.592;8.868;2023-12-29T01:16:15;2.83;;;2.30;;
6828;SDS011;17930;48.592;8.868;2023-12-29T01:18:42;2.87;;;2.37;;
6828;SDS011;17930;48.592;8.868;2023-12-29T01:21:11;4.00;;;2.67;;
6828;SDS011;17930;48.592;8.868;2023-12-29T01:23:38;3.50;;;2.57;;
6828;SDS011;17930;48.592;8.868;2023-12-29T01:26:05;3.97;;;2.83;;
6828;SDS011;17930;48.592;8.868;2023-12-29T01:28:34;2.97;;;2.03;;
6828;SDS011;17930;48.592;8.868;2023-12-29T01:31:00;4.50;;;2.90;;
6828;SDS011;17930;48.592;8.868;2023-12-29T01:33:30;3.23;;;2.67;;
6828;SDS011;17930;48.592;8.868;2023-12-29T01:35:56;3.80;;;2.70;;
6828;SDS011;17930;48.592;8.868;2023-12-29T01:38:23;2.97;;;2.37;;
6828;SDS011;17930;48.592;8.868;2023-12-29T01:40:50;2.60;;;2.40;;
6828;SDS011;17930;48.592;8.868;2023-12-29T01:43:17;3.90;;;2.50;;
6828;SDS011;17930;48.592;8.868;2023-12-29T01:45:44;3.77;;;2.70;;
6828;SDS011;17930;48.592;8.868;2023-12-29T01:48:11;2.50;;;2.13;;
6828;SDS011;17930;48.592;8.868;2023-12-29T01:50:38;3.63;;;2.37;;
6828;SDS011;17930;48.592;8.868;2023-12-29T01:53:05;3.53;;;2.33;;
6828;SDS011;17930;48.592;8.868;2023-12-29T01:55:33;3.97;;;2.60;;
6828;SDS011;17930;48.592;8.868;2023-12-29T01:58:00;3.73;;;2.60;;
6828;SDS011;17930;48.592;8.868;2023-12-29T02:00:28;4.23;;;3.20;;
6828;SDS011;17930;48.592;8.868;2023-12-29T02:02:57;4.47;;;2.53;;
6828;SDS011;17930;48.592;8.868;2023-12-29T02:05:24;3.07;;;2.50;;
6828;SDS011;17930;48.592;8.868;2023-12-29T02:07:52;3.47;;;2.63;;
6828;SDS011;17930;48.592;8.868;2023-12-29T02:10:19;4.13;;;2.63;;
6828;SDS011;17930;48.592;8.868;2023-12-29T02:12:47;4.33;;;3.17;;
6828;SDS011;17930;48.592;8.868;2023-12-29T02:15:15;4.97;;;2.70;;
6828;SDS011;17930;48.592;8.868;2023-12-29T02:17:43;3.67;;;3.00;;
6828;SDS011;17930;48.592;8.868;2023-12-29T02:20:15;4.30;;;2.77;;
6828;SDS011;17930;48.592;8.868;2023-12-29T02:22:43;5.43;;;3.00;;
6828;SDS011;17930;48.592;8.868;2023-12-29T02:25:11;4.30;;;2.93;;
6828;SDS011;17930;48.592;8.868;2023-12-29T02:27:41;3.67;;;2.73;;
6828;SDS011;17930;48.592;8.868;2023-12-29T02:30:15;3.77;;;2.77;;
6828;SDS011;17930;48.592;8.868;2023-12-29T02:32:47;4.33;;;2.50;;
6828;SDS011;17930;48.592;8.868;2023-12-29T02:35:17;3.63;;;2.70;;
6828;SDS011;17930;48.592;8.868;2023-12-29T02:37:46;5.73;;;3.50;;
6828;SDS011;17930;48.592;8.868;2023-12-29T02:40:15;4.87;;;3.27;;
6828;SDS011;17930;48.592;8.868;2023-12-29T02:42:45;4.27;;;3.13;;
6828;SDS011;17930;48.592;8.868;2023-12-29T02:45:13;5.23;;;2.87;;
6828;SDS011;17930;48.592;8.868;2023-12-29T02:47:43;4.90;;;2.57;;
6828;SDS011;17930;48.592;8.868;2023-12-29T02:50:10;4.60;;;3.03;;
6828;SDS011;17930;48.592;8.868;2023-12-29T02:52:36;3.97;;;2.73;;
6828;SDS011;17930;48.592;8.868;2023-12-29T02:55:03;3.13;;;2.63;;
6828;SDS011;17930;48.592;8.868;2023-12-29T02:57:32;4.90;;;2.73;;
6828;SDS011;17930;48.592;8.868;2023-12-29T02:59:58;5.93;;;2.87;;
6828;SDS011;17930;48.592;8.868;2023-12-29T03:02:25;4.77;;;3.00;;
6828;SDS011;17930;48.592;8.868;2023-12-29T03:04:52;4.73;;;2.90;;
6828;SDS011;17930;48.592;8.868;2023-12-29T03:07:19;6.00;;;3.10;;
6828;SDS011;17930;48.592;8.868;2023-12-29T03:09:46;4.13;;;3.00;;
6828;SDS011;17930;48.592;8.868;2023-12-29T03:12:12;6.93;;;3.63;;
6828;SDS011;17930;48.592;8.868;2023-12-29T03:14:40;4.53;;;3.17;;
6828;SDS011;17930;48.592;8.868;2023-12-29T03:17:07;3.90;;;2.90;;
6828;SDS011;17930;48.592;8.868;2023-12-29T03:19:34;5.07;;;3.47;;
6828;SDS011;17930;48.592;8.868;2023-12-29T03:22:01;4.20;;;2.83;;
6828;SDS011;17930;48.592;8.868;2023-12-29T03:24:27;4.43;;;2.80;;
6828;SDS011;17930;48.592;8.868;2023-12-29T03:26:55;4.83;;;3.07;;
6828;SDS011;17930;48.592;8.868;2023-12-29T03:29:20;4.70;;;3.40;;
6828;SDS011;17930;48.592;8.868;2023-12-29T03:31:49;5.00;;;3.33;;
6828;SDS011;17930;48.592;8.868;2023-12-29T03:34:15;5.87;;;2.80;;
6828;SDS011;17930;48.592;8.868;2023-12-29T03:36:42;5.27;;;3.40;;
6828;SDS011;17930;48.592;8.868;2023-12-29T03:39:09;4.33;;;2.93;;
6828;SDS011;17930;48.592;8.868;2023-12-29T03:41:35;5.43;;;3.00;;
6828;SDS011;17930;48.592;8.868;2023-12-29T03:44:02;5.70;;;3.10;;
6828;SDS011;17930;48.592;8.868;2023-12-29T03:46:30;3.67;;;2.90;;
6828;SDS011;17930;48.592;8.868;2023-12-29T03:48:58;3.90;;;2.90;;
6828;SDS011;17930;48.592;8.868;2023-12-29T03:51:25;6.13;;;3.17;;
6828;SDS011;17930;48.592;8.868;2023-12-29T03:53:51;5.53;;;2.90;;
6828;SDS011;17930;48.592;8.868;2023-12-29T03:56:18;3.73;;;2.80;;
6828;SDS011;17930;48.592;8.868;2023-12-29T03:58:45;6.70;;;2.80;;
6828;SDS011;17930;48.592;8.868;2023-12-29T04:01:13;5.30;;;3.17;;
6828;SDS011;17930;48.592;8.868;2023-12-29T04:03:40;6.40;;;3.40;;
6828;SDS011;17930;48.592;8.868;2023-12-29T04:06:09;3.77;;;2.73;;
6828;SDS011;17930;48.592;8.868;2023-12-29T04:08:36;4.23;;;2.60;;
6828;SDS011;17930;48.592;8.868;2023-12-29T04:11:04;4.30;;;3.03;;
6828;SDS011;17930;48.592;8.868;2023-12-29T04:13:31;4.13;;;2.63;;
6828;SDS011;17930;48.592;8.868;2023-12-29T04:15:58;5.03;;;2.97;;
6828;SDS011;17930;48.592;8.868;2023-12-29T04:18:24;4.43;;;3.00;;
6828;SDS011;17930;48.592;8.868;2023-12-29T04:20:51;3.97;;;2.60;;
6828;SDS011;17930;48.592;8.868;2023-12-29T04:23:19;5.40;;;3.00;;
6828;SDS011;17930;48.592;8.868;2023-12-29T04:25:46;4.93;;;3.33;;
6828;SDS011;17930;48.592;8.868;2023-12-29T04:28:13;4.23;;;2.93;;
6828;SDS011;17930;48.592;8.868;2023-12-29T04:30:40;3.93;;;2.60;;
6828;SDS011;17930;48.592;8.868;2023-12-29T04:33:06;4.13;;;3.07;;
6828;SDS011;17930;48.592;8.868;2023-12-29T04:35:33;3.80;;;2.67;;
6828;SDS011;17930;48.592;8.868;2023-12-29T04:37:59;3.47;;;2.60;;
6828;SDS011;17930;48.592;8.868;2023-12-29T04:40:27;3.90;;;2.93;;
6828;SDS011;17930;48.592;8.868;2023-12-29T04:42:54;5.67;;;2.67;;
6828;SDS011;17930;48.592;8.868;2023-12-29T04:45:21;3.87;;;2.90;;
6828;SDS011;17930;48.592;8.868;2023-12-29T04:47:47;6.07;;;3.23;;
6828;SDS011;17930;48.592;8.868;2023-12-29T04:50:14;3.60;;;2.53;;
6828;SDS011;17930;48.592;8.868;2023-12-29T04:52:41;4.17;;;3.03;;
6828;SDS011;17930;48.592;8.868;2023-12-29T04:55:07;5.97;;;3.67;;
6828;SDS011;17930;48.592;8.868;2023-12-29T04:57:36;3.47;;;2.53;;
6828;SDS011;17930;48.592;8.868;2023-12-29T05:00:03;5.03;;;3.00;;
6828;SDS011;17930;48.592;8.868;2023-12-29T05:02:30;3.73;;;2.57;;
6828;SDS011;17930;48.592;8.868;2023-12-29T05:04:57;5.17;;;3.00;;
6828;SDS011;17930;48.592;8.868;2023-12-29T05:07:24;8.73;;;2.77;;
6828;SDS011;17930;48.592;8.868;2023-12-29T05:09:51;5.50;;;3.17;;
6828;SDS011;17930;48.592;8.868;2023-12-29T05:12:18;5.20;;;3.17;;
6828;SDS011;17930;48.592;8.868;2023-12-29T05:14:46;5.37;;;2.83;;
6828;SDS011;17930;48.592;8.868;2023-12-29T05:17:12;5.53;;;2.80;;
6828;SDS011;17930;48.592;8.868;2023-12-29T05:19:39;4.97;;;2.67;;
6828;SDS011;17930;48.592;8.868;2023-12-29T05:22:06;4.67;;;2.87;;
6828;SDS011;17930;48.592;8.868;2023-12-29T05:24:33;3.80;;;2.70;;
6828;SDS011;17930;48.592;8.868;2023-12-29T05:26:59;3.50;;;2.70;;
6828;SDS011;17930;48.592;8.868;2023-12-29T05:29:26;3.53;;;2.60;;
6828;SDS011;17930;48.592;8.868;2023-12-29T05:31:54;5.93;;;3.17;;
6828;SDS011;17930;48.592;8.868;2023-12-29T05:34:21;4.87;;;3.00;;
6828;SDS011;17930;48.592;8.868;2023-12-29T05:36:48;6.07;;;2.90;;
6828;SDS011;17930;48.592;8.868;2023-12-29T05:39:14;4.40;;;3.07;;
6828;SDS011;17930;48.592;8.868;2023-12-29T05:41:41;3.53;;;2.70;;
6828;SDS011;17930;48.592;8.868;2023-12-29T05:44:07;4.00;;;2.73;;
6828;SDS011;17930;48.592;8.868;2023-12-29T05:46:34;5.03;;;3.13;;
6828;SDS011;17930;48.592;8.868;2023-12-29T05:49:02;4.30;;;2.97;;
6828;SDS011;17930;48.592;8.868;2023-12-29T05:51:29;4.27;;;3.00;;
6828;SDS011;17930;48.592;8.868;2023-12-29T05:53:56;3.77;;;2.60;;
6828;SDS011;17930;48.592;8.868;2023-12-29T05:56:22;3.77;;;2.93;;
6828;SDS011;17930;48.592;8.868;2023-12-29T05:58:49;5.00;;;3.20;;
6828;SDS011;17930;48.592;8.868;2023-12-29T06:01:16;3.50;;;2.87;;
6828;SDS011;17930;48.592;8.868;2023-12-29T06:03:42;4.30;;;2.70;;
6828;SDS011;17930;48.592;8.868;2023-12-29T06:06:10;4.13;;;2.93;;
6828;SDS011;17930;48.592;8.868;2023-12-29T06:08:37;3.93;;;2.77;;
6828;SDS011;17930;48.592;8.868;2023-12-29T06:11:03;4.50;;;2.50;;
6828;SDS011;17930;48.592;8.868;2023-12-29T06:13:30;2.77;;;2.30;;
6828;SDS011;17930;48.592;8.868;2023-12-29T06:15:57;3.70;;;2.67;;
6828;SDS011;17930;48.592;8.868;2023-12-29T06:18:24;4.43;;;2.63;;
6828;SDS011;17930;48.592;8.868;2023-12-29T06:20:50;7.63;;;2.83;;
6828;SDS011;17930;48.592;8.868;2023-12-29T06:23:18;2.80;;;2.10;;
6828;SDS011;17930;48.592;8.868;2023-12-29T06:25:45;5.60;;;2.23;;
6828;SDS011;17930;48.592;8.868;2023-12-29T06:28:12;3.97;;;2.80;;
6828;SDS011;17930;48.592;8.868;2023-12-29T06:30:39;3.67;;;2.50;;
6828;SDS011;17930;48.592;8.868;2023-12-29T06:33:05;2.97;;;2.17;;
6828;SDS011;17930;48.592;8.868;2023-12-29T06:35:33;4.00;;;2.40;;
6828;SDS011;17930;48.592;8.868;2023-12-29T06:37:59;4.17;;;2.53;;
6828;SDS011;17930;48.592;8.868;2023-12-29T06:40:27;4.47;;;2.80;;
6828;SDS011;17930;48.592;8.868;2023-12-29T06:42:54;3.50;;;2.37;;
6828;SDS011;17930;48.592;8.868;2023-12-29T06:45:21;3.47;;;2.50;;
6828;SDS011;17930;48.592;8.868;2023-12-29T06:47:47;4.20;;;2.67;;
6828;SDS011;17930;48.592;8.868;2023-12-29T06:50:14;3.37;;;2.20;;
6828;SDS011;17930;48.592;8.868;2023-12-29T06:52:41;3.10;;;2.33;;
6828;SDS011;17930;48.592;8.868;2023-12-29T06:55:08;4.63;;;2.70;;
6828;SDS011;17930;48.592;8.868;2023-12-29T06:57:36;4.67;;;2.37;;
6828;SDS011;17930;48.592;8.868;2023-12-29T07:00:03;5.03;;;2.63;;
6828;SDS011;17930;48.592;8.868;2023-12-29T07:02:31;3.33;;;2.57;;
6828;SDS011;17930;48.592;8.868;2023-12-29T07:04:58;3.10;;;2.43;;
6828;SDS011;17930;48.592;8.868;2023-12-29T07:07:25;3.97;;;2.70;;
6828;SDS011;17930;48.592;8.868;2023-12-29T07:09:51;5.43;;;3.10;;
6828;SDS011;17930;48.592;8.868;2023-12-29T07:12:18;3.27;;;2.50;;
6828;SDS011;17930;48.592;8.868;2023-12-29T07:14:47;8.53;;;2.80;;
6828;SDS011;17930;48.592;8.868;2023-12-29T07:17:14;4.13;;;2.43;;
6828;SDS011;17930;48.592;8.868;2023-12-29T07:19:41;4.93;;;3.17;;
6828;SDS011;17930;48.592;8.868;2023-12-29T07:22:08;6.23;;;3.23;;
6828;SDS011;17930;48.592;8.868;2023-12-29T07:24:34;5.77;;;3.00;;
6828;SDS011;17930;48.592;8.868;2023-12-29T07:27:02;4.43;;;3.03;;
6828;SDS011;17930;48.592;8.868;2023-12-29T07:29:30;4.37;;;3.00;;
6828;SDS011;17930;48.592;8.868;2023-12-29T07:31:58;5.00;;;3.43;;
6828;SDS011;17930;48.592;8.868;2023-12-29T07:34:25;3.03;;;2.30;;
6828;SDS011;17930;48.592;8.868;2023-12-29T07:36:52;3.93;;;2.70;;
6828;SDS011;17930;48.592;8.868;2023-12-29T07:39:19;4.50;;;2.87;;
6828;SDS011;17930;48.592;8.868;2023-12-29T07:41:46;4.17;;;3.13;;
6828;SDS011;17930;48.592;8.868;2023-12-29T07:44:13;4.83;;;2.70;;
6828;SDS011;17930;48.592;8.868;2023-12-29T07:46:40;4.13;;;2.30;;
6828;SDS011;17930;48.592;8.868;2023-12-29T07:49:08;3.30;;;2.00;;
6828;SDS011;17930;48.592;8.868;2023-12-29T07:51:38;3.67;;;2.63;;
6828;SDS011;17930;48.592;8.868;2023-12-29T07:54:05;4.40;;;2.53;;
6828;SDS011;17930;48.592;8.868;2023-12-29T07:56:32;4.40;;;3.10;;
6828;SDS011;17930;48.592;8.868;2023-12-29T07:58:58;4.43;;;2.83;;
6828;SDS011;17930;48.592;8.868;2023-12-29T08:01:25;6.20;;;2.77;;
6828;SDS011;17930;48.592;8.868;2023-12-29T08:03:52;4.03;;;3.00;;
6828;SDS011;17930;48.592;8.868;2023-12-29T08:06:20;5.53;;;3.00;;
6828;SDS011;17930;48.592;8.868;2023-12-29T08:08:47;3.83;;;2.50;;
6828;SDS011;17930;48.592;8.868;2023-12-29T08:11:14;5.13;;;2.67;;
6828;SDS011;17930;48.592;8.868;2023-12-29T08:13:43;6.37;;;2.93;;
6828;SDS011;17930;48.592;8.868;2023-12-29T08:16:10;3.33;;;2.57;;
6828;SDS011;17930;48.592;8.868;2023-12-29T08:18:37;5.27;;;3.20;;
6828;SDS011;17930;48.592;8.868;2023-12-29T08:21:04;4.00;;;3.10;;
6828;SDS011;17930;48.592;8.868;2023-12-29T08:23:32;5.23;;;3.20;;
6828;SDS011;17930;48.592;8.868;2023-12-29T08:25:58;4.97;;;3.33;;
6828;SDS011;17930;48.592;8.868;2023-12-29T08:28:25;4.23;;;3.13;;
6828;SDS011;17930;48.592;8.868;2023-12-29T08:30:52;4.17;;;2.73;;
6828;SDS011;17930;48.592;8.868;2023-12-29T08:33:19;4.77;;;2.90;;
6828;SDS011;17930;48.592;8.868;2023-12-29T08:35:45;4.87;;;3.10;;
6828;SDS011;17930;48.592;8.868;2023-12-29T08:38:12;3.93;;;2.30;;
6828;SDS011;17930;48.592;8.868;2023-12-29T08:40:41;3.37;;;2.47;;
6828;SDS011;17930;48.592;8.868;2023-12-29T08:43:08;4.67;;;2.83;;
6828;SDS011;17930;48.592;8.868;2023-12-29T08:45:34;4.90;;;2.80;;
6828;SDS011;17930;48.592;8.868;2023-12-29T08:48:01;3.33;;;2.07;;
6828;SDS011;17930;48.592;8.868;2023-12-29T08:50:29;2.73;;;2.30;;
6828;SDS011;17930;48.592;8.868;2023-12-29T08:52:56;3.70;;;2.47;;
6828;SDS011;17930;48.592;8.868;2023-12-29T08:55:22;2.83;;;2.30;;
6828;SDS011;17930;48.592;8.868;2023-12-29T08:57:50;4.70;;;2.60;;
6828;SDS011;17930;48.592;8.868;2023-12-29T09:00:17;3.77;;;2.37;;
6828;SDS011;17930;48.592;8.868;2023-12-29T09:02:44;4.90;;;2.53;;
6828;SDS011;17930;48.592;8.868;2023-12-29T09:05:11;5.07;;;2.67;;
6828;SDS011;17930;48.592;8.868;2023-12-29T09:07:38;2.43;;;1.90;;
6828;SDS011;17930;48.592;8.868;2023-12-29T09:10:05;3.47;;;2.20;;
6828;SDS011;17930;48.592;8.868;2023-12-29T09:12:35;2.97;;;1.93;;
6828;SDS011;17930;48.592;8.868;2023-12-29T09:15:04;3.07;;;1.83;;
6828;SDS011;17930;48.592;8.868;2023-12-29T09:17:32;2.90;;;2.00;;
6828;SDS011;17930;48.592;8.868;2023-12-29T09:19:58;2.77;;;1.93;;
6828;SDS011;17930;48.592;8.868;2023-12-29T09:22:25;3.37;;;2.10;;
6828;SDS011;17930;48.592;8.868;2023-12-29T09:24:53;2.80;;;2.23;;
6828;SDS011;17930;48.592;8.868;2023-12-29T09:27:20;3.33;;;2.23;;
6828;SDS011;17930;48.592;8.868;2023-12-29T09:29:46;3.53;;;2.10;;
6828;SDS011;17930;48.592;8.868;2023-12-29T09:32:14;5.77;;;2.40;;
6828;SDS011;17930;48.592;8.868;2023-12-29T09:34:41;2.70;;;2.00;;
6828;SDS011;17930;48.592;8.868;2023-12-29T09:37:08;3.07;;;2.30;;
6828;SDS011;17930;48.592;8.868;2023-12-29T09:39:34;4.97;;;2.07;;
6828;SDS011;17930;48.592;8.868;2023-12-29T09:42:01;3.83;;;2.43;;
6828;SDS011;17930;48.592;8.868;2023-12-29T09:44:30;3.60;;;2.67;;
6828;SDS011;17930;48.592;8.868;2023-12-29T09:47:00;3.93;;;2.83;;
6828;SDS011;17930;48.592;8.868;2023-12-29T09:49:35;3.83;;;2.57;;
6828;SDS011;17930;48.592;8.868;2023-12-29T09:52:05;3.30;;;2.23;;
6828;SDS011;17930;48.592;8.868;2023-12-29T09:54:35;3.10;;;2.43;;
6828;SDS011;17930;48.592;8.868;2023-12-29T09:57:03;3.80;;;2.83;;
6828;SDS011;17930;48.592;8.868;2023-12-29T09:59:32;3.00;;;2.27;;
6828;SDS011;17930;48.592;8.868;2023-12-29T10:02:01;4.37;;;2.47;;
6828;SDS011;17930;48.592;8.868;2023-12-29T10:04:31;3.27;;;2.20;;
6828;SDS011;17930;48.592;8.868;2023-12-29T10:06:59;2.73;;;2.00;;
6828;SDS011;17930;48.592;8.868;2023-12-29T10:09:31;3.07;;;2.30;;
6828;SDS011;17930;48.592;8.868;2023-12-29T10:12:00;4.27;;;2.60;;
6828;SDS011;17930;48.592;8.868;2023-12-29T10:14:30;2.70;;;2.30;;
6828;SDS011;17930;48.592;8.868;2023-12-29T10:17:03;3.10;;;2.17;;
6828;SDS011;17930;48.592;8.868;2023-12-29T10:19:37;2.80;;;2.10;;
6828;SDS011;17930;48.592;8.868;2023-12-29T10:22:07;3.60;;;2.17;;
6828;SDS011;17930;48.592;8.868;2023-12-29T10:24:40;2.00;;;1.70;;
6828;SDS011;17930;48.592;8.868;2023-12-29T10:27:09;2.33;;;1.70;;
6828;SDS011;17930;48.592;8.868;2023-12-29T10:29:35;2.70;;;2.30;;
6828;SDS011;17930;48.592;8.868;2023-12-29T10:32:03;1.90;;;1.60;;
6828;SDS011;17930;48.592;8.868;2023-12-29T10:34:30;2.50;;;1.77;;
6828;SDS011;17930;48.592;8.868;2023-12-29T10:36:58;1.73;;;1.40;;
6828;SDS011;17930;48.592;8.868;2023-12-29T10:39:26;3.37;;;1.60;;
6828;SDS011;17930;48.592;8.868;2023-12-29T10:42:02;1.60;;;1.30;;
6828;SDS011;17930;48.592;8.868;2023-12-29T10:44:31;1.60;;;1.30;;
6828;SDS011;17930;48.592;8.868;2023-12-29T10:46:58;1.57;;;1.40;;
6828;SDS011;17930;48.592;8.868;2023-12-29T10:49:33;1.90;;;1.40;;
6828;SDS011;17930;48.592;8.868;2023-12-29T10:52:01;1.87;;;1.50;;
6828;SDS011;17930;48.592;8.868;2023-12-29T10:54:37;1.93;;;1.60;;
6828;SDS011;17930;48.592;8.868;2023-12-29T10:57:04;1.63;;;1.17;;
6828;SDS011;17930;48.592;8.868;2023-12-29T10:59:30;1.83;;;1.40;;
6828;SDS011;17930;48.592;8.868;2023-12-29T11:01:58;1.67;;;1.00;;
6828;SDS011;17930;48.592;8.868;2023-12-29T11:04:27;1.10;;;1.00;;
6828;SDS011;17930;48.592;8.868;2023-12-29T11:06:54;1.33;;;1.00;;
6828;SDS011;17930;48.592;8.868;2023-12-29T11:09:29;1.17;;;1.07;;
6828;SDS011;17930;48.592;8.868;2023-12-29T11:11:57;3.50;;;1.20;;
6828;SDS011;17930;48.592;8.868;2023-12-29T11:14:26;1.27;;;1.17;;
6828;SDS011;17930;48.592;8.868;2023-12-29T11:16:57;2.67;;;1.50;;
6828;SDS011;17930;48.592;8.868;2023-12-29T11:19:25;2.90;;;1.57;;
6828;SDS011;17930;48.592;8.868;2023-12-29T11:21:52;1.43;;;1.20;;
6828;SDS011;17930;48.592;8.868;2023-12-29T11:24:21;1.30;;;1.00;;
6828;SDS011;17930;48.592;8.868;2023-12-29T11:26:50;3.40;;;1.50;;
6828;SDS011;17930;48.592;8.868;2023-12-29T11:29:17;3.37;;;1.27;;
6828;SDS011;17930;48.592;8.868;2023-12-29T11:31:45;1.83;;;1.00;;
6828;SDS011;17930;48.592;8.868;2023-12-29T11:34:16;1.27;;;1.00;;
6828;SDS011;17930;48.592;8.868;2023-12-29T11:36:50;1.27;;;1.00;;
6828;SDS011;17930;48.592;8.868;2023-12-29T11:39:21;1.83;;;1.10;;
6828;SDS011;17930;48.592;8.868;2023-12-29T11:41:59;2.20;;;1.37;;
6828;SDS011;17930;48.592;8.868;2023-12-29T11:44:32;1.73;;;1.10;;
6828;SDS011;17930;48.592;8.868;2023-12-29T11:46:58;1.13;;;1.03;;
6828;SDS011;17930;48.592;8.868;2023-12-29T11:49:25;1.57;;;1.17;;
6828;SDS011;17930;48.592;8.868;2023-12-29T11:51:52;1.83;;;1.37;;
6828;SDS011;17930;48.592;8.868;2023-12-29T11:54:22;1.10;;;1.00;;
6828;SDS011;17930;48.592;8.868;2023-12-29T11:56:50;1.17;;;1.00;;
6828;SDS011;17930;48.592;8.868;2023-12-29T11:59:20;2.17;;;1.20;;
6828;SDS011;17930;48.592;8.868;2023-12-29T12:01:48;1.10;;;1.00;;
6828;SDS011;17930;48.592;8.868;2023-12-29T12:04:34;1.10;;;1.00;;
6828;SDS011;17930;48.592;8.868;2023-12-29T12:07:06;1.47;;;1.10;;
6828;SDS011;17930;48.592;8.868;2023-12-29T12:09:34;1.00;;;0.87;;
6828;SDS011;17930;48.592;8.868;2023-12-29T12:12:01;0.80;;;0.80;;
6828;SDS011;17930;48.592;8.868;2023-12-29T12:14:44;1.17;;;1.07;;
6828;SDS011;17930;48.592;8.868;2023-12-29T12:17:12;1.70;;;1.40;;
6828;SDS011;17930;48.592;8.868;2023-12-29T12:19:55;1.87;;;1.27;;
6828;SDS011;17930;48.592;8.868;2023-12-29T12:22:23;1.27;;;1.10;;
6828;SDS011;17930;48.592;8.868;2023-12-29T12:24:50;1.00;;;0.90;;
6828;SDS011;17930;48.592;8.868;2023-12-29T12:27:22;2.87;;;1.43;;
6828;SDS011;17930;48.592;8.868;2023-12-29T12:29:53;1.50;;;1.00;;
6828;SDS011;17930;48.592;8.868;2023-12-29T12:32:23;1.40;;;1.17;;
6828;SDS011;17930;48.592;8.868;2023-12-29T12:34:50;2.10;;;1.20;;
6828;SDS011;17930;48.592;8.868;2023-12-29T12:37:18;2.30;;;1.13;;
6828;SDS011;17930;48.592;8.868;2023-12-29T12:39:45;2.23;;;1.20;;
6828;SDS011;17930;48.592;8.868;2023-12-29T12:42:12;2.77;;;1.20;;
6828;SDS011;17930;48.592;8.868;2023-12-29T12:44:40;1.67;;;1.00;;
6828;SDS011;17930;48.592;8.868;2023-12-29T12:47:15;2.00;;;1.00;;
6828;SDS011;17930;48.592;8.868;2023-12-29T12:49:45;2.70;;;1.20;;
6828;SDS011;17930;48.592;8.868;2023-12-29T12:52:12;1.80;;;1.03;;
6828;SDS011;17930;48.592;8.868;2023-12-29T12:54:39;1.33;;;0.90;;
6828;SDS011;17930;48.592;8.868;2023-12-29T12:57:07;1.87;;;1.37;;
6828;SDS011;17930;48.592;8.868;2023-12-29T12:59:34;2.50;;;1.23;;
6828;SDS011;17930;48.592;8.868;2023-12-29T13:02:01;1.40;;;0.80;;
6828;SDS011;17930;48.592;8.868;2023-12-29T13:04:32;1.40;;;1.20;;
6828;SDS011;17930;48.592;8.868;2023-12-29T13:06:58;1.90;;;1.10;;
6828;SDS011;17930;48.592;8.868;2023-12-29T13:09:25;0.83;;;0.83;;
6828;SDS011;17930;48.592;8.868;2023-12-29T13:12:06;1.40;;;0.87;;
6828;SDS011;17930;48.592;8.868;2023-12-29T13:14:34;1.33;;;1.03;;
6828;SDS011;17930;48.592;8.868;2023-12-29T13:17:04;1.33;;;0.83;;
6828;SDS011;17930;48.592;8.868;2023-12-29T13:19:33;0.97;;;0.80;;
6828;SDS011;17930;48.592;8.868;2023-12-29T13:22:00;2.10;;;1.50;;
6828;SDS011;17930;48.592;8.868;2023-12-29T13:24:28;2.20;;;1.07;;
6828;SDS011;17930;48.592;8.868;2023-12-29T13:26:57;1.20;;;0.97;;
6828;SDS011;17930;48.592;8.868;2023-12-29T13:29:28;1.10;;;1.00;;
6828;SDS011;17930;48.592;8.868;2023-12-29T13:31:57;1.50;;;1.00;;
6828;SDS011;17930;48.592;8.868;2023-12-29T13:34:27;1.30;;;1.10;;
6828;SDS011;17930;48.592;8.868;2023-12-29T13:37:02;1.00;;;0.83;;
6828;SDS011;17930;48.592;8.868;2023-12-29T13:39:36;1.20;;;0.93;;
6828;SDS011;17930;48.592;8.868;2023-12-29T13:42:07;1.53;;;1.07;;
6828;SDS011;17930;48.592;8.868;2023-12-29T13:44:38;1.60;;;1.03;;
6828;SDS011;17930;48.592;8.868;2023-12-29T13:47:08;1.20;;;1.10;;
6828;SDS011;17930;48.592;8.868;2023-12-29T13:49:36;1.87;;;1.00;;
6828;SDS011;17930;48.592;8.868;2023-12-29T13:52:05;1.93;;;0.80;;
6828;SDS011;17930;48.592;8.868;2023-12-29T13:54:40;1.10;;;1.00;;
6828;SDS011;17930;48.592;8.868;2023-12-29T13:57:07;1.50;;;1.10;;
6828;SDS011;17930;48.592;8.868;2023-12-29T13:59:34;2.10;;;1.33;;
6828;SDS011;17930;48.592;8.868;2023-12-29T14:02:03;2.77;;;1.20;;
6828;SDS011;17930;48.592;8.868;2023-12-29T14:04:45;2.20;;;1.10;;
6828;SDS011;17930;48.592;8.868;2023-12-29T14:07:13;1.10;;;1.00;;
6828;SDS011;17930;48.592;8.868;2023-12-29T14:09:41;1.33;;;0.93;;
6828;SDS011;17930;48.592;8.868;2023-12-29T14:12:08;1.17;;;1.07;;
6828;SDS011;17930;48.592;8.868;2023-12-29T14:14:35;4.90;;;1.10;;
6828;SDS011;17930;48.592;8.868;2023-12-29T14:17:01;1.67;;;1.20;;
6828;SDS011;17930;48.592;8.868;2023-12-29T14:19:34;0.90;;;0.90;;
6828;SDS011;17930;48.592;8.868;2023-12-29T14:22:00;1.10;;;1.10;;
6828;SDS011;17930;48.592;8.868;2023-12-29T14:24:28;1.70;;;1.10;;
6828;SDS011;17930;48.592;8.868;2023-12-29T14:26:56;1.57;;;1.40;;
6828;SDS011;17930;48.592;8.868;2023-12-29T14:29:24;3.23;;;1.23;;
6828;SDS011;17930;48.592;8.868;2023-12-29T14:31:51;1.67;;;1.20;;
6828;SDS011;17930;48.592;8.868;2023-12-29T14:34:18;1.60;;;1.33;;
6828;SDS011;17930;48.592;8.868;2023-12-29T14:36:45;1.50;;;1.10;;
6828;SDS011;17930;48.592;8.868;2023-12-29T14:39:12;2.57;;;1.00;;
6828;SDS011;17930;48.592;8.868;2023-12-29T14:41:42;1.90;;;1.00;;
6828;SDS011;17930;48.592;8.868;2023-12-29T14:44:10;1.23;;;0.90;;
6828;SDS011;17930;48.592;8.868;2023-12-29T14:46:37;1.93;;;1.40;;
6828;SDS011;17930;48.592;8.868;2023-12-29T14:49:04;1.73;;;1.30;;
6828;SDS011;17930;48.592;8.868;2023-12-29T14:51:31;1.73;;;1.23;;
6828;SDS011;17930;48.592;8.868;2023-12-29T14:53:57;1.13;;;0.80;;
6828;SDS011;17930;48.592;8.868;2023-12-29T14:56:24;3.10;;;0.87;;
6828;SDS011;17930;48.592;8.868;2023-12-29T14:58:52;1.90;;;1.37;;
6828;SDS011;17930;48.592;8.868;2023-12-29T15:01:19;1.73;;;1.10;;
6828;SDS011;17930;48.592;8.868;2023-12-29T15:03:46;1.87;;;1.10;;